Alps, New York
Current Conditions -  °F | °C
As of 6:51 AM on Monday 22 Dec 2014 (Local Time) from KALB Reporting Station
Light Snow Light Snow  
Wind Chill: 29°   Ceiling: 1800
Heat Index: 29°   Visibility: 8mi
Dew Point: 24°   Wind: 3mph
Humidity: 82%   Direction: 10°N
Pressure: 30.36"   Gusts: NA
Location:  42.6497°N, 73.5273°W
Report Text: KALB 221151Z 01003KT 8SM -SN FEW010 OVC018 M02/M04 A3036 RMK AO2 SLP285 PCPN VRY LGT 4/001 P0000 60001 70001 T10171044 11011 21017 58001
Loading
Personal Weather Stations






























Interactive Weather Map New forecast layout! Learn more

10-Day Weather Forecast

Advertisements
Track Severe Weather on mobile